23.32C
пасмурно
пасмурно
Дата и времяТемператураДавление, мм рт.ст.Влажность, %Осадки
МинимумМаксимум
12.06.2024 20:0021.4C23.32C76232пасмурно
12.06.2024 23:0019.92C22.19C76135пасмурно
13.06.2024 02:0018.5C20.11C76045пасмурно
13.06.2024 05:0018.69C18.69C75958пасмурно
13.06.2024 08:0019.19C19.19C75879небольшой дождь
13.06.2024 11:0021.67C21.67C75872небольшой дождь
13.06.2024 14:0021.66C21.66C75874пасмурно
13.06.2024 17:0023.66C23.66C75862пасмурно
13.06.2024 20:0021.66C21.66C75970пасмурно
13.06.2024 23:0018.5C18.5C75976пасмурно
14.06.2024 02:0016.37C16.37C75982переменная облачность
14.06.2024 05:0019.57C19.57C75968облачно с прояснениями
14.06.2024 08:0022.77C22.77C75954облачно с прояснениями
14.06.2024 11:0025.25C25.25C75945облачно с прояснениями
14.06.2024 14:0027.03C27.03C75939облачно с прояснениями
14.06.2024 17:0026.8C26.8C75841облачно с прояснениями
14.06.2024 20:0025.6C25.6C75750небольшая облачность
14.06.2024 23:0022.1C22.1C75756небольшая облачность
15.06.2024 02:0020.18C20.18C75665переменная облачность
15.06.2024 05:0021.44C21.44C75671небольшая облачность
15.06.2024 08:0020.89C20.89C75683небольшой дождь
15.06.2024 11:0026.96C26.96C75456небольшой дождь
15.06.2024 14:0028.66C28.66C75348облачно с прояснениями
15.06.2024 17:0030.19C30.19C75239облачно с прояснениями
15.06.2024 20:0020.41C20.41C75382дождь
15.06.2024 23:0018.53C18.53C75392небольшой дождь
16.06.2024 02:0014.79C14.79C75589пасмурно
16.06.2024 05:0013.42C13.42C75684пасмурно
16.06.2024 08:0013.48C13.48C75781пасмурно
16.06.2024 11:0016.22C16.22C75770пасмурно
16.06.2024 14:0019.17C19.17C75657пасмурно
16.06.2024 17:0020.24C20.24C75653пасмурно
16.06.2024 20:0019.09C19.09C75560облачно с прояснениями
16.06.2024 23:0015.74C15.74C75473облачно с прояснениями
17.06.2024 02:0014.22C14.22C75380облачно с прояснениями
17.06.2024 05:0015.81C15.81C75279небольшой дождь
17.06.2024 08:0016.01C16.01C75088небольшой дождь
17.06.2024 11:0015.75C15.75C75095небольшой дождь
17.06.2024 14:0012.43C12.43C75094небольшой дождь
17.06.2024 17:0011.47C11.47C75183небольшой дождь
Дата и время наблюдения: 12.06.2024 18:50:59